Аэропорт: Алыкель. Норильск

ICAO: UOOO

METAR:
2024-04-22 22:00:00
UOOO 222200Z 04007MPS CAVOK M20/M23 Q1019 R01/810360 NOSIG RMK QFE750/1000
TAF:
2024-04-22 19:47:00
TAF UOOO 221947Z 2221/2321 04007G15MPS 6000 BLSN SCT016 
  TEMPO 2221/2303 1000 BLSN 
  TEMPO 2306/2315 36012G18MPS 2500 BLSN